sensor_id;sensor_type;location;lat;lon;timestamp;temperature;humidity
76789;DHT22;65740;52.464;13.446;2023-07-08T00:00:16;26.30;43.40
76789;DHT22;65740;52.464;13.446;2023-07-08T00:02:43;26.30;43.30
76789;DHT22;65740;52.464;13.446;2023-07-08T00:05:11;26.30;43.20
76789;DHT22;65740;52.464;13.446;2023-07-08T00:07:38;26.30;43.20
76789;DHT22;65740;52.464;13.446;2023-07-08T00:10:22;26.30;43.20
76789;DHT22;65740;52.464;13.446;2023-07-08T00:12:50;26.30;43.10
76789;DHT22;65740;52.464;13.446;2023-07-08T00:15:16;26.30;43.00
76789;DHT22;65740;52.464;13.446;2023-07-08T00:17:43;26.30;43.00
76789;DHT22;65740;52.464;13.446;2023-07-08T00:20:19;26.20;42.80
76789;DHT22;65740;52.464;13.446;2023-07-08T00:22:46;26.20;42.80
76789;DHT22;65740;52.464;13.446;2023-07-08T00:25:18;26.20;42.70
76789;DHT22;65740;52.464;13.446;2023-07-08T00:27:47;26.20;42.70
76789;DHT22;65740;52.464;13.446;2023-07-08T00:30:33;26.20;42.70
76789;DHT22;65740;52.464;13.446;2023-07-08T00:32:59;26.10;42.60
76789;DHT22;65740;52.464;13.446;2023-07-08T00:35:33;26.10;42.60
76789;DHT22;65740;52.464;13.446;2023-07-08T00:37:59;26.10;42.60
76789;DHT22;65740;52.464;13.446;2023-07-08T00:40:32;26.10;42.60
76789;DHT22;65740;52.464;13.446;2023-07-08T00:43:03;26.10;43.30
76789;DHT22;65740;52.464;13.446;2023-07-08T00:45:51;26.10;42.60
76789;DHT22;65740;52.464;13.446;2023-07-08T00:48:31;26.00;42.60
76789;DHT22;65740;52.464;13.446;2023-07-08T00:50:59;26.00;43.30
76789;DHT22;65740;52.464;13.446;2023-07-08T00:53:36;26.00;42.60
76789;DHT22;65740;52.464;13.446;2023-07-08T00:56:09;26.00;42.60
76789;DHT22;65740;52.464;13.446;2023-07-08T00:58:41;26.00;42.60
76789;DHT22;65740;52.464;13.446;2023-07-08T01:01:09;26.00;42.60
76789;DHT22;65740;52.464;13.446;2023-07-08T01:03:47;25.90;42.50
76789;DHT22;65740;52.464;13.446;2023-07-08T01:06:15;26.00;42.60
76789;DHT22;65740;52.464;13.446;2023-07-08T01:08:41;25.90;42.50
76789;DHT22;65740;52.464;13.446;2023-07-08T01:11:07;25.90;42.50
76789;DHT22;65740;52.464;13.446;2023-07-08T01:13:37;25.90;42.50
76789;DHT22;65740;52.464;13.446;2023-07-08T01:16:06;25.90;42.50
76789;DHT22;65740;52.464;13.446;2023-07-08T01:18:32;25.90;42.50
76789;DHT22;65740;52.464;13.446;2023-07-08T01:21:35;25.90;42.50
76789;DHT22;65740;52.464;13.446;2023-07-08T01:24:03;25.80;42.40
76789;DHT22;65740;52.464;13.446;2023-07-08T01:26:30;25.80;42.40
76789;DHT22;65740;52.464;13.446;2023-07-08T01:28:57;25.80;42.40
76789;DHT22;65740;52.464;13.446;2023-07-08T01:31:23;25.80;42.50
76789;DHT22;65740;52.464;13.446;2023-07-08T01:33:51;25.80;42.40
76789;DHT22;65740;52.464;13.446;2023-07-08T01:36:17;25.80;42.40
76789;DHT22;65740;52.464;13.446;2023-07-08T01:38:43;25.70;42.40
76789;DHT22;65740;52.464;13.446;2023-07-08T01:41:14;25.70;43.00
76789;DHT22;65740;52.464;13.446;2023-07-08T01:43:40;25.70;42.40
76789;DHT22;65740;52.464;13.446;2023-07-08T01:46:13;25.70;42.40
76789;DHT22;65740;52.464;13.446;2023-07-08T01:48:41;25.70;43.00
76789;DHT22;65740;52.464;13.446;2023-07-08T01:51:08;25.70;42.40
76789;DHT22;65740;52.464;13.446;2023-07-08T01:53:37;25.70;42.40
76789;DHT22;65740;52.464;13.446;2023-07-08T01:56:04;25.70;42.40
76789;DHT22;65740;52.464;13.446;2023-07-08T01:58:30;25.60;42.30
76789;DHT22;65740;52.464;13.446;2023-07-08T02:00:56;25.60;42.30
76789;DHT22;65740;52.464;13.446;2023-07-08T02:03:22;25.60;42.30
76789;DHT22;65740;52.464;13.446;2023-07-08T02:05:48;25.60;42.20
76789;DHT22;65740;52.464;13.446;2023-07-08T02:08:14;25.60;42.20
76789;DHT22;65740;52.464;13.446;2023-07-08T02:10:42;25.60;42.20
76789;DHT22;65740;52.464;13.446;2023-07-08T02:13:07;25.60;42.00
76789;DHT22;65740;52.464;13.446;2023-07-08T02:15:33;25.50;42.00
76789;DHT22;65740;52.464;13.446;2023-07-08T02:17:59;25.50;41.80
76789;DHT22;65740;52.464;13.446;2023-07-08T02:20:25;25.50;41.90
76789;DHT22;65740;52.464;13.446;2023-07-08T02:22:50;25.50;41.70
76789;DHT22;65740;52.464;13.446;2023-07-08T02:25:16;25.50;41.60
76789;DHT22;65740;52.464;13.446;2023-07-08T02:27:42;25.50;41.70
76789;DHT22;65740;52.464;13.446;2023-07-08T02:30:08;25.50;42.30
76789;DHT22;65740;52.464;13.446;2023-07-08T02:32:35;25.40;41.40
76789;DHT22;65740;52.464;13.446;2023-07-08T02:35:02;25.40;41.40
76789;DHT22;65740;52.464;13.446;2023-07-08T02:37:29;25.40;41.40
76789;DHT22;65740;52.464;13.446;2023-07-08T02:39:55;25.40;41.30
76789;DHT22;65740;52.464;13.446;2023-07-08T02:42:21;25.40;41.30
76789;DHT22;65740;52.464;13.446;2023-07-08T02:44:47;25.40;41.30
76789;DHT22;65740;52.464;13.446;2023-07-08T02:47:12;25.40;41.20
76789;DHT22;65740;52.464;13.446;2023-07-08T02:49:38;25.40;41.20
76789;DHT22;65740;52.464;13.446;2023-07-08T02:52:04;25.30;41.10
76789;DHT22;65740;52.464;13.446;2023-07-08T02:54:29;25.30;41.10
76789;DHT22;65740;52.464;13.446;2023-07-08T02:56:55;25.30;41.00
76789;DHT22;65740;52.464;13.446;2023-07-08T02:59:21;25.30;41.00
76789;DHT22;65740;52.464;13.446;2023-07-08T03:01:46;25.30;41.00
76789;DHT22;65740;52.464;13.446;2023-07-08T03:04:13;25.30;41.00
76789;DHT22;65740;52.464;13.446;2023-07-08T03:06:45;25.20;40.90
76789;DHT22;65740;52.464;13.446;2023-07-08T03:09:12;25.20;40.80
76789;DHT22;65740;52.464;13.446;2023-07-08T03:11:38;25.20;40.80
76789;DHT22;65740;52.464;13.446;2023-07-08T03:14:04;25.20;40.70
76789;DHT22;65740;52.464;13.446;2023-07-08T03:16:30;25.20;40.70
76789;DHT22;65740;52.464;13.446;2023-07-08T03:18:56;25.20;40.60
76789;DHT22;65740;52.464;13.446;2023-07-08T03:21:22;25.20;40.70
76789;DHT22;65740;52.464;13.446;2023-07-08T03:23:49;25.20;40.60
76789;DHT22;65740;52.464;13.446;2023-07-08T03:26:17;25.20;40.60
76789;DHT22;65740;52.464;13.446;2023-07-08T03:28:44;25.10;40.50
76789;DHT22;65740;52.464;13.446;2023-07-08T03:31:10;25.10;40.40
76789;DHT22;65740;52.464;13.446;2023-07-08T03:33:36;25.10;40.40
76789;DHT22;65740;52.464;13.446;2023-07-08T03:36:03;25.10;40.50
76789;DHT22;65740;52.464;13.446;2023-07-08T03:38:29;25.10;40.40
76789;DHT22;65740;52.464;13.446;2023-07-08T03:40:55;25.10;40.40
76789;DHT22;65740;52.464;13.446;2023-07-08T03:43:20;25.10;40.40
76789;DHT22;65740;52.464;13.446;2023-07-08T03:45:46;25.10;40.40
76789;DHT22;65740;52.464;13.446;2023-07-08T03:48:12;25.10;40.40
76789;DHT22;65740;52.464;13.446;2023-07-08T03:50:38;25.10;40.40
76789;DHT22;65740;52.464;13.446;2023-07-08T03:53:04;25.00;40.40
76789;DHT22;65740;52.464;13.446;2023-07-08T03:55:29;25.00;40.30
76789;DHT22;65740;52.464;13.446;2023-07-08T03:57:55;25.00;40.30
76789;DHT22;65740;52.464;13.446;2023-07-08T04:00:21;25.00;40.30
76789;DHT22;65740;52.464;13.446;2023-07-08T04:02:47;25.00;40.20
76789;DHT22;65740;52.464;13.446;2023-07-08T04:05:17;25.00;40.30
76789;DHT22;65740;52.464;13.446;2023-07-08T04:07:43;25.00;40.30
76789;DHT22;65740;52.464;13.446;2023-07-08T04:10:09;25.00;40.20
76789;DHT22;65740;52.464;13.446;2023-07-08T04:12:36;25.00;40.20
76789;DHT22;65740;52.464;13.446;2023-07-08T04:15:02;24.90;40.20
76789;DHT22;65740;52.464;13.446;2023-07-08T04:17:27;24.90;40.20
76789;DHT22;65740;52.464;13.446;2023-07-08T04:19:53;24.90;40.10
76789;DHT22;65740;52.464;13.446;2023-07-08T04:22:22;24.90;40.10
76789;DHT22;65740;52.464;13.446;2023-07-08T04:24:47;24.90;40.10
76789;DHT22;65740;52.464;13.446;2023-07-08T04:27:15;24.90;40.10
76789;DHT22;65740;52.464;13.446;2023-07-08T04:29:42;24.90;40.10
76789;DHT22;65740;52.464;13.446;2023-07-08T04:32:07;24.90;40.00
76789;DHT22;65740;52.464;13.446;2023-07-08T04:34:33;24.90;40.00
76789;DHT22;65740;52.464;13.446;2023-07-08T04:36:58;24.90;40.00
76789;DHT22;65740;52.464;13.446;2023-07-08T04:39:24;24.90;40.00
76789;DHT22;65740;52.464;13.446;2023-07-08T04:41:50;24.90;40.00
76789;DHT22;65740;52.464;13.446;2023-07-08T04:44:15;24.90;40.00
76789;DHT22;65740;52.464;13.446;2023-07-08T04:46:57;24.80;40.50
76789;DHT22;65740;52.464;13.446;2023-07-08T04:49:23;24.90;39.90
76789;DHT22;65740;52.464;13.446;2023-07-08T04:51:50;24.80;39.80
76789;DHT22;65740;52.464;13.446;2023-07-08T04:54:16;24.90;39.90
76789;DHT22;65740;52.464;13.446;2023-07-08T04:56:44;24.90;39.90
76789;DHT22;65740;52.464;13.446;2023-07-08T04:59:12;24.80;39.70
76789;DHT22;65740;52.464;13.446;2023-07-08T05:01:38;24.80;39.70
76789;DHT22;65740;52.464;13.446;2023-07-08T05:04:05;24.80;39.70
76789;DHT22;65740;52.464;13.446;2023-07-08T05:06:31;24.80;39.70
76789;DHT22;65740;52.464;13.446;2023-07-08T05:08:58;24.80;39.70
76789;DHT22;65740;52.464;13.446;2023-07-08T05:11:23;24.80;39.90
76789;DHT22;65740;52.464;13.446;2023-07-08T05:13:49;24.80;39.80
76789;DHT22;65740;52.464;13.446;2023-07-08T05:16:15;24.80;39.90
76789;DHT22;65740;52.464;13.446;2023-07-08T05:18:40;24.80;39.90
76789;DHT22;65740;52.464;13.446;2023-07-08T05:21:06;24.70;39.90
76789;DHT22;65740;52.464;13.446;2023-07-08T05:23:33;24.70;39.90
76789;DHT22;65740;52.464;13.446;2023-07-08T05:26:03;24.70;39.80
76789;DHT22;65740;52.464;13.446;2023-07-08T05:28:29;24.70;39.70
76789;DHT22;65740;52.464;13.446;2023-07-08T05:30:55;24.70;39.80
76789;DHT22;65740;52.464;13.446;2023-07-08T05:33:25;24.70;40.50
76789;DHT22;65740;52.464;13.446;2023-07-08T05:35:51;24.70;39.80
76789;DHT22;65740;52.464;13.446;2023-07-08T05:38:17;24.70;39.80
76789;DHT22;65740;52.464;13.446;2023-07-08T05:40:43;24.70;39.90
76789;DHT22;65740;52.464;13.446;2023-07-08T05:43:09;24.70;39.90
76789;DHT22;65740;52.464;13.446;2023-07-08T05:45:34;24.70;39.90
76789;DHT22;65740;52.464;13.446;2023-07-08T05:48:01;24.70;39.90
76789;DHT22;65740;52.464;13.446;2023-07-08T05:50:27;24.70;39.90
76789;DHT22;65740;52.464;13.446;2023-07-08T05:52:53;24.70;39.90
76789;DHT22;65740;52.464;13.446;2023-07-08T05:55:18;24.70;39.90
76789;DHT22;65740;52.464;13.446;2023-07-08T05:57:44;24.70;40.00
76789;DHT22;65740;52.464;13.446;2023-07-08T06:00:10;24.70;39.90
76789;DHT22;65740;52.464;13.446;2023-07-08T06:02:36;24.70;39.80
76789;DHT22;65740;52.464;13.446;2023-07-08T06:05:02;24.70;39.90
76789;DHT22;65740;52.464;13.446;2023-07-08T06:07:28;24.70;39.90
76789;DHT22;65740;52.464;13.446;2023-07-08T06:09:53;24.70;39.90
76789;DHT22;65740;52.464;13.446;2023-07-08T06:12:21;24.70;39.90
76789;DHT22;65740;52.464;13.446;2023-07-08T06:14:47;24.70;39.80
76789;DHT22;65740;52.464;13.446;2023-07-08T06:17:13;24.70;39.80
76789;DHT22;65740;52.464;13.446;2023-07-08T06:19:38;24.70;39.80
76789;DHT22;65740;52.464;13.446;2023-07-08T06:22:04;24.70;39.80
76789;DHT22;65740;52.464;13.446;2023-07-08T06:24:30;24.70;39.80
76789;DHT22;65740;52.464;13.446;2023-07-08T06:26:55;24.70;39.80
76789;DHT22;65740;52.464;13.446;2023-07-08T06:29:21;24.70;39.90
76789;DHT22;65740;52.464;13.446;2023-07-08T06:31:47;24.70;39.80
76789;DHT22;65740;52.464;13.446;2023-07-08T06:34:12;24.70;39.80
76789;DHT22;65740;52.464;13.446;2023-07-08T06:36:38;24.70;39.70
76789;DHT22;65740;52.464;13.446;2023-07-08T06:39:03;24.70;39.70
76789;DHT22;65740;52.464;13.446;2023-07-08T06:41:32;24.80;39.80
76789;DHT22;65740;52.464;13.446;2023-07-08T06:43:58;24.80;39.70
76789;DHT22;65740;52.464;13.446;2023-07-08T06:46:24;24.80;39.70
76789;DHT22;65740;52.464;13.446;2023-07-08T06:48:49;24.80;40.00
76789;DHT22;65740;52.464;13.446;2023-07-08T06:51:15;24.80;39.80
76789;DHT22;65740;52.464;13.446;2023-07-08T06:53:41;24.80;39.90
76789;DHT22;65740;52.464;13.446;2023-07-08T06:56:07;24.80;40.00
76789;DHT22;65740;52.464;13.446;2023-07-08T06:58:33;24.80;39.90
76789;DHT22;65740;52.464;13.446;2023-07-08T07:00:59;24.80;40.00
76789;DHT22;65740;52.464;13.446;2023-07-08T07:03:25;24.80;39.90
76789;DHT22;65740;52.464;13.446;2023-07-08T07:05:51;24.80;40.10
76789;DHT22;65740;52.464;13.446;2023-07-08T07:08:16;24.90;40.20
76789;DHT22;65740;52.464;13.446;2023-07-08T07:10:42;24.90;40.20
76789;DHT22;65740;52.464;13.446;2023-07-08T07:13:08;24.80;40.20
76789;DHT22;65740;52.464;13.446;2023-07-08T07:15:33;24.90;40.50
76789;DHT22;65740;52.464;13.446;2023-07-08T07:17:59;24.90;40.40
76789;DHT22;65740;52.464;13.446;2023-07-08T07:20:25;24.90;40.60
76789;DHT22;65740;52.464;13.446;2023-07-08T07:22:51;24.90;40.60
76789;DHT22;65740;52.464;13.446;2023-07-08T07:25:18;24.90;40.60
76789;DHT22;65740;52.464;13.446;2023-07-08T07:27:44;24.90;40.60
76789;DHT22;65740;52.464;13.446;2023-07-08T07:30:10;24.90;40.80
76789;DHT22;65740;52.464;13.446;2023-07-08T07:32:41;25.00;40.70
76789;DHT22;65740;52.464;13.446;2023-07-08T07:35:08;25.00;40.90
76789;DHT22;65740;52.464;13.446;2023-07-08T07:37:34;25.00;40.90
76789;DHT22;65740;52.464;13.446;2023-07-08T07:39:59;25.00;40.80
76789;DHT22;65740;52.464;13.446;2023-07-08T07:42:27;25.00;40.80
76789;DHT22;65740;52.464;13.446;2023-07-08T07:44:53;25.00;40.80
76789;DHT22;65740;52.464;13.446;2023-07-08T07:47:18;25.00;41.50
76789;DHT22;65740;52.464;13.446;2023-07-08T07:49:44;25.10;41.00
76789;DHT22;65740;52.464;13.446;2023-07-08T07:52:10;25.10;41.00
76789;DHT22;65740;52.464;13.446;2023-07-08T07:54:37;25.10;41.00
76789;DHT22;65740;52.464;13.446;2023-07-08T07:57:03;25.10;41.00
76789;DHT22;65740;52.464;13.446;2023-07-08T07:59:29;25.10;41.00
76789;DHT22;65740;52.464;13.446;2023-07-08T08:01:54;25.10;41.10
76789;DHT22;65740;52.464;13.446;2023-07-08T08:04:20;25.10;41.00
76789;DHT22;65740;52.464;13.446;2023-07-08T08:06:46;25.10;41.10
76789;DHT22;65740;52.464;13.446;2023-07-08T08:09:12;25.10;41.10
76789;DHT22;65740;52.464;13.446;2023-07-08T08:11:38;25.20;41.20
76789;DHT22;65740;52.464;13.446;2023-07-08T08:14:04;25.20;41.20
76789;DHT22;65740;52.464;13.446;2023-07-08T08:16:30;25.20;41.20
76789;DHT22;65740;52.464;13.446;2023-07-08T08:18:56;25.30;41.20
76789;DHT22;65740;52.464;13.446;2023-07-08T08:21:21;25.30;41.30
76789;DHT22;65740;52.464;13.446;2023-07-08T08:23:47;25.30;41.30
76789;DHT22;65740;52.464;13.446;2023-07-08T08:26:13;25.30;41.30
76789;DHT22;65740;52.464;13.446;2023-07-08T08:28:39;25.30;41.40
76789;DHT22;65740;52.464;13.446;2023-07-08T08:31:05;25.40;41.40
76789;DHT22;65740;52.464;13.446;2023-07-08T08:33:31;25.40;41.50
76789;DHT22;65740;52.464;13.446;2023-07-08T08:35:56;25.40;41.40
76789;DHT22;65740;52.464;13.446;2023-07-08T08:38:22;25.40;41.50
76789;DHT22;65740;52.464;13.446;2023-07-08T08:40:47;25.40;41.30
76789;DHT22;65740;52.464;13.446;2023-07-08T08:43:17;25.40;41.40
76789;DHT22;65740;52.464;13.446;2023-07-08T08:48:17;25.50;41.40
76789;DHT22;65740;52.464;13.446;2023-07-08T08:50:57;25.60;41.50
76789;DHT22;65740;52.464;13.446;2023-07-08T08:53:26;25.60;41.50
76789;DHT22;65740;52.464;13.446;2023-07-08T08:55:58;25.60;41.50
76789;DHT22;65740;52.464;13.446;2023-07-08T08:58:37;25.70;41.50
76789;DHT22;65740;52.464;13.446;2023-07-08T09:01:08;25.70;41.80
76789;DHT22;65740;52.464;13.446;2023-07-08T09:06:27;25.70;41.50
76789;DHT22;65740;52.464;13.446;2023-07-08T09:08:54;25.80;41.70
76789;DHT22;65740;52.464;13.446;2023-07-08T09:11:38;25.80;41.50
76789;DHT22;65740;52.464;13.446;2023-07-08T09:14:17;25.80;41.60
76789;DHT22;65740;52.464;13.446;2023-07-08T09:17:16;25.90;41.60
76789;DHT22;65740;52.464;13.446;2023-07-08T09:22:45;25.90;41.70
76789;DHT22;65740;52.464;13.446;2023-07-08T09:25:29;25.90;41.60
76789;DHT22;65740;52.464;13.446;2023-07-08T09:27:56;26.00;41.60
76789;DHT22;65740;52.464;13.446;2023-07-08T09:30:24;26.00;41.70
76789;DHT22;65740;52.464;13.446;2023-07-08T09:32:51;26.00;41.60
76789;DHT22;65740;52.464;13.446;2023-07-08T09:35:26;26.00;41.70
76789;DHT22;65740;52.464;13.446;2023-07-08T09:37:52;26.10;41.70
76789;DHT22;65740;52.464;13.446;2023-07-08T09:40:32;26.10;41.60
76789;DHT22;65740;52.464;13.446;2023-07-08T09:43:03;26.20;41.70
76789;DHT22;65740;52.464;13.446;2023-07-08T09:46:01;26.20;41.80
76789;DHT22;65740;52.464;13.446;2023-07-08T09:48:34;26.20;41.80
76789;DHT22;65740;52.464;13.446;2023-07-08T09:51:00;26.30;41.70
76789;DHT22;65740;52.464;13.446;2023-07-08T09:53:27;26.30;41.70
76789;DHT22;65740;52.464;13.446;2023-07-08T09:55:53;26.30;41.90
76789;DHT22;65740;52.464;13.446;2023-07-08T09:58:29;26.30;41.90
76789;DHT22;65740;52.464;13.446;2023-07-08T10:00:58;26.40;42.00
76789;DHT22;65740;52.464;13.446;2023-07-08T10:03:30;26.40;41.90
76789;DHT22;65740;52.464;13.446;2023-07-08T10:05:58;26.40;41.90
76789;DHT22;65740;52.464;13.446;2023-07-08T10:08:37;26.50;42.10
76789;DHT22;65740;52.464;13.446;2023-07-08T10:11:22;26.50;42.00
76789;DHT22;65740;52.464;13.446;2023-07-08T10:13:52;26.60;42.30
76789;DHT22;65740;52.464;13.446;2023-07-08T10:16:28;26.60;42.10
76789;DHT22;65740;52.464;13.446;2023-07-08T10:18:55;26.60;42.40
76789;DHT22;65740;52.464;13.446;2023-07-08T10:27:19;26.80;42.40
76789;DHT22;65740;52.464;13.446;2023-07-08T10:38:48;26.90;43.20
76789;DHT22;65740;52.464;13.446;2023-07-08T10:46:13;27.00;43.20
76789;DHT22;65740;52.464;13.446;2023-07-08T11:08:17;27.40;43.50
76789;DHT22;65740;52.464;13.446;2023-07-08T11:10:51;27.40;43.50
76789;DHT22;65740;52.464;13.446;2023-07-08T11:13:20;27.40;43.50
76789;DHT22;65740;52.464;13.446;2023-07-08T11:15:54;27.40;43.70
76789;DHT22;65740;52.464;13.446;2023-07-08T11:21:14;27.50;44.70
76789;DHT22;65740;52.464;13.446;2023-07-08T11:28:37;27.60;45.60
76789;DHT22;65740;52.464;13.446;2023-07-08T11:31:04;27.70;45.40
76789;DHT22;65740;52.464;13.446;2023-07-08T11:33:31;27.70;45.60
76789;DHT22;65740;52.464;13.446;2023-07-08T11:35:59;27.80;45.80
76789;DHT22;65740;52.464;13.446;2023-07-08T11:38:26;27.80;45.90
76789;DHT22;65740;52.464;13.446;2023-07-08T11:41:00;27.80;45.70
76789;DHT22;65740;52.464;13.446;2023-07-08T11:44:19;27.90;46.50
76789;DHT22;65740;52.464;13.446;2023-07-08T11:46:54;27.90;46.50
76789;DHT22;65740;52.464;13.446;2023-07-08T11:49:20;27.90;46.80
76789;DHT22;65740;52.464;13.446;2023-07-08T11:51:47;28.00;47.50
76789;DHT22;65740;52.464;13.446;2023-07-08T11:54:14;28.00;47.50
76789;DHT22;65740;52.464;13.446;2023-07-08T11:56:58;28.00;48.00
76789;DHT22;65740;52.464;13.446;2023-07-08T11:59:29;28.10;47.70
76789;DHT22;65740;52.464;13.446;2023-07-08T12:02:03;28.10;48.60
76789;DHT22;65740;52.464;13.446;2023-07-08T12:04:33;28.10;49.30
76789;DHT22;65740;52.464;13.446;2023-07-08T12:07:19;28.20;48.80
76789;DHT22;65740;52.464;13.446;2023-07-08T12:10:22;28.20;49.00
76789;DHT22;65740;52.464;13.446;2023-07-08T12:12:51;28.20;48.90
76789;DHT22;65740;52.464;13.446;2023-07-08T12:17:47;28.30;49.90
76789;DHT22;65740;52.464;13.446;2023-07-08T12:22:44;28.40;49.90
76789;DHT22;65740;52.464;13.446;2023-07-08T12:25:15;28.40;49.90
76789;DHT22;65740;52.464;13.446;2023-07-08T12:27:42;28.40;50.10
76789;DHT22;65740;52.464;13.446;2023-07-08T12:30:10;28.50;50.50
76789;DHT22;65740;52.464;13.446;2023-07-08T12:32:37;28.50;50.70
76789;DHT22;65740;52.464;13.446;2023-07-08T12:35:03;28.50;50.90
76789;DHT22;65740;52.464;13.446;2023-07-08T12:37:31;28.50;51.80
76789;DHT22;65740;52.464;13.446;2023-07-08T12:39:58;28.60;51.40
76789;DHT22;65740;52.464;13.446;2023-07-08T12:42:30;28.60;52.40
76789;DHT22;65740;52.464;13.446;2023-07-08T12:44:56;28.70;52.20
76789;DHT22;65740;52.464;13.446;2023-07-08T12:47:22;28.70;51.90
76789;DHT22;65740;52.464;13.446;2023-07-08T12:49:48;28.70;52.40
76789;DHT22;65740;52.464;13.446;2023-07-08T12:52:21;28.80;51.70
76789;DHT22;65740;52.464;13.446;2023-07-08T12:54:47;28.80;51.10
76789;DHT22;65740;52.464;13.446;2023-07-08T12:57:15;28.80;51.10
76789;DHT22;65740;52.464;13.446;2023-07-08T12:59:41;28.80;52.20
76789;DHT22;65740;52.464;13.446;2023-07-08T13:02:15;28.80;52.50
76789;DHT22;65740;52.464;13.446;2023-07-08T13:04:44;28.90;52.80
76789;DHT22;65740;52.464;13.446;2023-07-08T13:07:22;28.90;53.10
76789;DHT22;65740;52.464;13.446;2023-07-08T13:09:49;29.00;53.50
76789;DHT22;65740;52.464;13.446;2023-07-08T13:12:18;29.00;53.70
76789;DHT22;65740;52.464;13.446;2023-07-08T13:14:48;29.00;53.60
76789;DHT22;65740;52.464;13.446;2023-07-08T13:17:14;29.00;53.60
76789;DHT22;65740;52.464;13.446;2023-07-08T13:19:41;29.10;53.70
76789;DHT22;65740;52.464;13.446;2023-07-08T13:22:15;29.10;53.70
76789;DHT22;65740;52.464;13.446;2023-07-08T13:24:42;29.10;53.70
76789;DHT22;65740;52.464;13.446;2023-07-08T13:27:14;29.10;53.70
76789;DHT22;65740;52.464;13.446;2023-07-08T13:29:41;29.20;53.70
76789;DHT22;65740;52.464;13.446;2023-07-08T13:32:10;29.20;54.00
76789;DHT22;65740;52.464;13.446;2023-07-08T13:34:35;29.20;53.70
76789;DHT22;65740;52.464;13.446;2023-07-08T13:37:01;29.20;53.70
76789;DHT22;65740;52.464;13.446;2023-07-08T13:39:32;29.30;53.80
76789;DHT22;65740;52.464;13.446;2023-07-08T13:42:00;29.30;53.80
76789;DHT22;65740;52.464;13.446;2023-07-08T13:44:26;29.30;54.60
76789;DHT22;65740;52.464;13.446;2023-07-08T13:46:54;29.40;54.70
76789;DHT22;65740;52.464;13.446;2023-07-08T13:49:27;29.40;54.50
76789;DHT22;65740;52.464;13.446;2023-07-08T13:52:08;29.40;53.90
76789;DHT22;65740;52.464;13.446;2023-07-08T13:54:47;29.40;55.00
76789;DHT22;65740;52.464;13.446;2023-07-08T13:57:16;29.40;54.60
76789;DHT22;65740;52.464;13.446;2023-07-08T13:59:42;29.40;54.80
76789;DHT22;65740;52.464;13.446;2023-07-08T14:02:34;29.50;55.60
76789;DHT22;65740;52.464;13.446;2023-07-08T14:05:01;29.50;56.30
76789;DHT22;65740;52.464;13.446;2023-07-08T14:07:31;29.50;55.30
76789;DHT22;65740;52.464;13.446;2023-07-08T14:09:57;29.60;55.00
76789;DHT22;65740;52.464;13.446;2023-07-08T14:12:23;29.60;55.40
76789;DHT22;65740;52.464;13.446;2023-07-08T14:14:49;29.60;55.30
76789;DHT22;65740;52.464;13.446;2023-07-08T14:17:23;29.60;55.30
76789;DHT22;65740;52.464;13.446;2023-07-08T14:19:49;29.70;55.10
76789;DHT22;65740;52.464;13.446;2023-07-08T14:22:29;29.70;54.90
76789;DHT22;65740;52.464;13.446;2023-07-08T14:25:06;29.70;56.00
76789;DHT22;65740;52.464;13.446;2023-07-08T14:27:32;29.70;55.30
76789;DHT22;65740;52.464;13.446;2023-07-08T14:29:58;29.70;55.50
76789;DHT22;65740;52.464;13.446;2023-07-08T14:32:26;29.70;55.40
76789;DHT22;65740;52.464;13.446;2023-07-08T14:34:56;29.70;54.90
76789;DHT22;65740;52.464;13.446;2023-07-08T14:37:23;29.70;55.30
76789;DHT22;65740;52.464;13.446;2023-07-08T14:39:49;29.80;55.90
76789;DHT22;65740;52.464;13.446;2023-07-08T14:42:16;29.80;55.70
76789;DHT22;65740;52.464;13.446;2023-07-08T14:44:44;29.80;56.10
76789;DHT22;65740;52.464;13.446;2023-07-08T14:47:13;29.90;56.60
76789;DHT22;65740;52.464;13.446;2023-07-08T14:49:40;29.90;55.90
76789;DHT22;65740;52.464;13.446;2023-07-08T14:52:06;29.80;55.20
76789;DHT22;65740;52.464;13.446;2023-07-08T14:54:31;29.90;56.10
76789;DHT22;65740;52.464;13.446;2023-07-08T14:56:57;29.90;57.20
76789;DHT22;65740;52.464;13.446;2023-07-08T14:59:27;29.90;56.00
76789;DHT22;65740;52.464;13.446;2023-07-08T15:01:54;29.90;56.10
76789;DHT22;65740;52.464;13.446;2023-07-08T15:04:21;30.00;56.20
76789;DHT22;65740;52.464;13.446;2023-07-08T15:06:47;30.00;55.50
76789;DHT22;65740;52.464;13.446;2023-07-08T15:09:13;30.00;56.20
76789;DHT22;65740;52.464;13.446;2023-07-08T15:11:40;30.00;56.10
76789;DHT22;65740;52.464;13.446;2023-07-08T15:14:21;30.00;56.20
76789;DHT22;65740;52.464;13.446;2023-07-08T15:16:49;30.10;56.90
76789;DHT22;65740;52.464;13.446;2023-07-08T15:19:16;30.10;56.20
76789;DHT22;65740;52.464;13.446;2023-07-08T15:21:41;30.10;56.40
76789;DHT22;65740;52.464;13.446;2023-07-08T15:24:09;30.10;56.40
76789;DHT22;65740;52.464;13.446;2023-07-08T15:26:39;30.10;56.40
76789;DHT22;65740;52.464;13.446;2023-07-08T15:29:16;30.10;56.10
76789;DHT22;65740;52.464;13.446;2023-07-08T15:31:42;30.10;56.20
76789;DHT22;65740;52.464;13.446;2023-07-08T15:34:20;30.10;55.00
76789;DHT22;65740;52.464;13.446;2023-07-08T15:36:46;30.20;55.40
76789;DHT22;65740;52.464;13.446;2023-07-08T15:39:12;30.20;55.60
76789;DHT22;65740;52.464;13.446;2023-07-08T15:41:41;30.20;55.40
76789;DHT22;65740;52.464;13.446;2023-07-08T15:44:09;30.20;55.60
76789;DHT22;65740;52.464;13.446;2023-07-08T15:46:39;30.20;54.90
76789;DHT22;65740;52.464;13.446;2023-07-08T15:49:20;30.20;55.00
76789;DHT22;65740;52.464;13.446;2023-07-08T15:51:46;30.20;54.40
76789;DHT22;65740;52.464;13.446;2023-07-08T15:54:11;30.20;54.40
76789;DHT22;65740;52.464;13.446;2023-07-08T15:56:38;30.20;54.40
76789;DHT22;65740;52.464;13.446;2023-07-08T15:59:05;30.20;54.70
76789;DHT22;65740;52.464;13.446;2023-07-08T16:01:34;30.20;54.70
76789;DHT22;65740;52.464;13.446;2023-07-08T16:03:59;30.20;54.40
76789;DHT22;65740;52.464;13.446;2023-07-08T16:06:26;30.20;54.40
76789;DHT22;65740;52.464;13.446;2023-07-08T16:08:51;30.20;54.40
76789;DHT22;65740;52.464;13.446;2023-07-08T16:11:26;30.20;54.40
76789;DHT22;65740;52.464;13.446;2023-07-08T16:13:53;30.20;54.40
76789;DHT22;65740;52.464;13.446;2023-07-08T16:16:23;30.20;54.40
76789;DHT22;65740;52.464;13.446;2023-07-08T16:18:49;30.20;54.40
76789;DHT22;65740;52.464;13.446;2023-07-08T16:21:14;30.20;54.40
76789;DHT22;65740;52.464;13.446;2023-07-08T16:23:41;30.30;54.50